Portada
METAR-TAF:

METAR-TAF

Aeropuertos :

Cap Skirring, Senegal

latitud: 12-24N, longitud: 016-45W, altitud: 16 m

Observación

El informe se hizo hace 12 horas y 59 minutos, a las 10:00 UTC
Viento 6 kt con dirección variable
Temperatura 29°C
Humedad 79%
Presión 1012 hPa
Visibilidad 10 km o más
Escasas nubes a una altura de 1500 ft

METAR: GOGS 221000Z VRB06KT 9999 FEW015 29/25 Q1012

Hora: 22:59 (22:59 UTC)

Pronóstico

El informe se hizo hace 5 horas y 29 minutos, a las 17:30 UTC
Pronóstico válido del 22 a las 18 UTC al 23 a las 18 UTC
Viento 7 kt del oeste-suroeste
Visibilidad 10 km o más
Nubes dispersas a una altura de 1300 ft
Probabilidad 40% :
Temporalmente
del 23 a las 10 UTC al 23 a las 12 UTC
Visibilidad: 4000 m
Cielo nuboso a una altura de 1200 ft
Escasas nubes a una altura de 2500 ft, Cumulonimbus.
tormenta, lluvia

TAF: GOGS 221730Z 2218/2318 24007KT 9999 SCT013 PROB40 TEMPO 2310/2312 4000 TSRA BKN012 FEW025CB

Observaciones y pronósticos meteorológicos de más de 4000 aeropuertos (mensajes METAR y TAF).

Los puntos amarillos y rojos representan las estaciones disponibles.

Ponga el ratón en el punto deseado para ver el nombre de la estación.

Haga clic para ver las observaciones y los pronósticos meteorológicos.

Para cambiar el mapa : haga clic en los botones verdes con una cruz de color negro para hacer un zoom, en el botón verde con un guión para alejar o en las flechas verdes para mapas adyacentes.


METAR-TAF: